Time;durP1;ratioP1;P1;durP2;ratioP2;P2;SDS_P1;SDS_P2;PMS_P1;PMS_P2;Temp;Humidity;BMP_temperature;BMP_pressure;BME280_temperature;BME280_humidity;BME280_pressure;Samples;Min_cycle;Max_cycle;Signal;HPM_P1;HPM_P2
2022/09/28 00:00:05;;;;;;;;;;;10.10;88.30;;;;;;5020152;28;20522;-78
2022/09/28 00:02:31;;;;;;;;;;;10.10;88.20;;;;;;5040983;28;20384;-78
2022/09/28 00:04:56;;;;;;;;;;;10.20;88.10;;;;;;5037227;28;19936;-78
2022/09/28 00:07:22;;;;;;;;;;;10.10;87.80;;;;;;5034642;28;19914;-78
2022/09/28 00:09:47;;;;;;;;;;;10.10;87.80;;;;;;5018769;28;20328;-78
2022/09/28 00:12:13;;;;;;;;;;;10.10;88.10;;;;;;5040989;28;20237;-79
2022/09/28 00:14:39;;;;;;;;;;;10.10;88.20;;;;;;5038302;28;19913;-79
2022/09/28 00:17:06;;;;;;;;;;;10.10;88.00;;;;;;5036663;28;19917;-78
2022/09/28 00:19:31;;;;;;;;;;;10.10;88.00;;;;;;5033812;28;19913;-79
2022/09/28 00:21:56;;;;;;;;;;;10.10;87.90;;;;;;5043749;28;19971;-78
2022/09/28 00:24:22;;;;;;;;;;;10.10;87.60;;;;;;5024077;28;19940;-78
2022/09/28 00:26:52;;;;;;;;;;;10.10;87.80;;;;;;5034399;28;19932;-78
2022/09/28 00:29:18;;;;;;;;;;;10.00;88.00;;;;;;5038262;28;19913;-78
2022/09/28 00:31:43;;;;;;;;;;;10.10;87.40;;;;;;5016132;28;20102;-79
2022/09/28 00:34:09;;;;;;;;;;;10.00;87.70;;;;;;5024641;28;19963;-78
2022/09/28 00:36:35;;;;;;;;;;;10.00;87.90;;;;;;5033770;28;19925;-79
2022/09/28 00:39:07;;;;;;;;;;;10.00;87.80;;;;;;5021310;28;19949;-78
2022/09/28 00:41:34;;;;;;;;;;;9.90;87.30;;;;;;5033725;28;20502;-78
2022/09/28 00:44:18;;;;;;;;;;;9.80;87.70;;;;;;5022351;28;19917;-78
2022/09/28 00:46:43;;;;;;;;;;;9.80;87.20;;;;;;5027129;28;19921;-78
2022/09/28 00:49:12;;;;;;;;;;;9.90;87.30;;;;;;5035785;28;19936;-78
2022/09/28 00:51:39;;;;;;;;;;;9.80;87.10;;;;;;5037059;28;20007;-79
2022/09/28 00:54:06;;;;;;;;;;;9.80;87.00;;;;;;5019302;28;19914;-79
2022/09/28 00:56:33;;;;;;;;;;;9.70;87.00;;;;;;5036859;28;19917;-79
2022/09/28 00:58:58;;;;;;;;;;;9.60;87.50;;;;;;5040521;28;19917;-78
2022/09/28 01:01:25;;;;;;;;;;;9.60;87.80;;;;;;5032195;28;20306;-79
2022/09/28 01:03:50;;;;;;;;;;;9.60;87.50;;;;;;5035007;28;20046;-78
2022/09/28 01:06:26;;;;;;;;;;;9.50;87.70;;;;;;5052769;28;20387;-78
2022/09/28 01:08:53;;;;;;;;;;;9.50;87.70;;;;;;5031755;28;19914;-78
2022/09/28 01:11:18;;;;;;;;;;;9.50;88.00;;;;;;5036012;28;19913;-79
2022/09/28 01:13:45;;;;;;;;;;;9.50;87.80;;;;;;5041383;28;19944;-79
2022/09/28 01:16:11;;;;;;;;;;;9.50;87.80;;;;;;5028857;28;19971;-80
2022/09/28 01:18:46;;;;;;;;;;;9.50;87.30;;;;;;5031274;28;19913;-79
2022/09/28 01:21:21;;;;;;;;;;;9.50;87.30;;;;;;5018693;28;19923;-79
2022/09/28 01:23:47;;;;;;;;;;;9.50;87.10;;;;;;5047695;28;19920;-79
2022/09/28 01:26:12;;;;;;;;;;;9.40;87.40;;;;;;5050606;28;19913;-79
2022/09/28 01:28:38;;;;;;;;;;;9.40;87.70;;;;;;5033777;28;19913;-79
2022/09/28 01:31:05;;;;;;;;;;;9.40;87.60;;;;;;5034784;28;19913;-79
2022/09/28 01:33:51;;;;;;;;;;;9.50;87.70;;;;;;5029750;28;19914;-79
2022/09/28 01:36:28;;;;;;;;;;;9.50;87.40;;;;;;5033843;28;19932;-79
2022/09/28 01:38:56;;;;;;;;;;;9.60;86.80;;;;;;5033941;28;19920;-78
2022/09/28 01:41:22;;;;;;;;;;;9.60;86.50;;;;;;5034564;28;19921;-78
2022/09/28 01:43:54;;;;;;;;;;;9.60;86.60;;;;;;5040922;28;19975;-79
2022/09/28 01:46:21;;;;;;;;;;;9.60;86.50;;;;;;5037107;28;19917;-78
2022/09/28 01:48:49;;;;;;;;;;;9.60;86.50;;;;;;5039534;28;19913;-78
2022/09/28 01:51:40;;;;;;;;;;;9.60;86.50;;;;;;5026255;28;20011;-79
2022/09/28 01:54:09;;;;;;;;;;;9.50;86.90;;;;;;5023975;28;19924;-78
2022/09/28 01:56:38;;;;;;;;;;;9.60;87.20;;;;;;5012969;28;19925;-78
2022/09/28 01:59:06;;;;;;;;;;;9.60;86.90;;;;;;5032469;28;19965;-78
2022/09/28 02:01:36;;;;;;;;;;;9.60;87.20;;;;;;5024157;28;20015;-79
2022/09/28 02:04:06;;;;;;;;;;;9.60;86.90;;;;;;5030197;28;20381;-79
2022/09/28 02:06:44;;;;;;;;;;;9.60;86.80;;;;;;5035884;28;19912;-79
2022/09/28 02:09:11;;;;;;;;;;;9.60;86.80;;;;;;5017458;28;19913;-78
2022/09/28 02:11:40;;;;;;;;;;;9.60;87.00;;;;;;5051245;28;19913;-79
2022/09/28 02:14:08;;;;;;;;;;;9.60;87.00;;;;;;5032004;28;19921;-80
2022/09/28 02:16:37;;;;;;;;;;;9.60;87.20;;;;;;5046300;28;19988;-79
2022/09/28 02:19:03;;;;;;;;;;;9.60;87.10;;;;;;5024007;28;19917;-79
2022/09/28 02:21:31;;;;;;;;;;;9.60;86.80;;;;;;5016492;28;19913;-79
2022/09/28 02:23:58;;;;;;;;;;;9.60;86.70;;;;;;5045479;28;20000;-78
2022/09/28 02:26:26;;;;;;;;;;;9.60;87.00;;;;;;5044200;28;19917;-79
2022/09/28 02:28:51;;;;;;;;;;;9.60;86.80;;;;;;5046616;28;20163;-78
2022/09/28 02:31:17;;;;;;;;;;;9.60;86.90;;;;;;5017438;28;20424;-80
2022/09/28 02:33:43;;;;;;;;;;;9.60;87.10;;;;;;5039754;28;19971;-78
2022/09/28 02:36:09;;;;;;;;;;;9.60;87.30;;;;;;5038287;28;21801;-79
2022/09/28 02:38:35;;;;;;;;;;;9.60;87.60;;;;;;5068597;23;19984;-82
2022/09/28 02:41:20;;;;;;;;;;;9.60;87.30;;;;;;5045248;28;19939;-83
2022/09/28 02:43:45;;;;;;;;;;;9.60;87.50;;;;;;5037690;28;21868;-82
2022/09/28 02:46:23;;;;;;;;;;;9.60;87.70;;;;;;5031448;28;19927;-86
2022/09/28 02:49:01;;;;;;;;;;;9.60;87.00;;;;;;5017568;28;19943;-84
2022/09/28 02:51:38;;;;;;;;;;;9.60;86.80;;;;;;5040982;28;19913;-87
2022/09/28 02:54:04;;;;;;;;;;;9.60;86.80;;;;;;5020529;28;19917;-86
2022/09/28 02:57:04;;;;;;;;;;;9.60;87.00;;;;;;5025659;28;20275;-87
2022/09/28 03:00:00;;;;;;;;;;;9.60;87.20;;;;;;5017006;28;19917;-87
2022/09/28 03:02:35;;;;;;;;;;;9.60;87.30;;;;;;5037155;28;20383;-87
2022/09/28 03:05:06;;;;;;;;;;;9.60;87.20;;;;;;5035482;28;19917;-84
2022/09/28 03:07:37;;;;;;;;;;;9.70;86.30;;;;;;5027111;28;20003;-84
2022/09/28 03:10:08;;;;;;;;;;;9.60;86.60;;;;;;5007774;28;19920;-84
2022/09/28 03:12:34;;;;;;;;;;;9.60;87.00;;;;;;5020963;28;19913;-83
2022/09/28 03:15:08;;;;;;;;;;;9.60;87.00;;;;;;5014111;28;19932;-83
2022/09/28 03:17:33;;;;;;;;;;;9.60;87.10;;;;;;5019747;28;19916;-83
2022/09/28 03:19:59;;;;;;;;;;;9.60;87.10;;;;;;5021572;28;19999;-83
2022/09/28 03:22:24;;;;;;;;;;;9.60;87.10;;;;;;5037179;28;19909;-83
2022/09/28 03:24:50;;;;;;;;;;;9.60;86.90;;;;;;5039205;28;19967;-83
2022/09/28 03:27:15;;;;;;;;;;;9.60;86.40;;;;;;5038180;28;19955;-83
2022/09/28 03:29:40;;;;;;;;;;;9.60;86.90;;;;;;5043923;28;19901;-83
2022/09/28 03:32:06;;;;;;;;;;;9.60;86.60;;;;;;5071214;28;19920;-84
2022/09/28 03:34:31;;;;;;;;;;;9.60;86.90;;;;;;5034592;28;19913;-83
2022/09/28 03:36:57;;;;;;;;;;;9.60;87.00;;;;;;5048329;28;20263;-83
2022/09/28 03:39:22;;;;;;;;;;;9.50;87.10;;;;;;5044893;28;19917;-84
2022/09/28 03:41:48;;;;;;;;;;;9.50;87.10;;;;;;5054691;28;19913;-83
2022/09/28 03:44:13;;;;;;;;;;;9.60;86.70;;;;;;5043347;28;19917;-83
2022/09/28 03:46:38;;;;;;;;;;;9.60;86.40;;;;;;5046620;28;20383;-83
2022/09/28 03:49:04;;;;;;;;;;;9.60;86.20;;;;;;5024824;28;19976;-83
2022/09/28 03:51:29;;;;;;;;;;;9.50;85.90;;;;;;5049550;28;19913;-83
2022/09/28 03:53:55;;;;;;;;;;;9.40;85.90;;;;;;5032615;28;20501;-82
2022/09/28 03:56:21;;;;;;;;;;;9.30;86.40;;;;;;5053388;28;20357;-83
2022/09/28 03:58:46;;;;;;;;;;;9.30;86.10;;;;;;5011803;28;19931;-82
2022/09/28 04:01:13;;;;;;;;;;;9.30;86.30;;;;;;5049188;28;19921;-83
2022/09/28 04:03:38;;;;;;;;;;;9.40;85.90;;;;;;5032896;28;19968;-83
2022/09/28 04:06:04;;;;;;;;;;;9.40;86.10;;;;;;5036464;28;19960;-83
2022/09/28 04:08:29;;;;;;;;;;;9.30;85.60;;;;;;5026900;28;19913;-81
2022/09/28 04:10:58;;;;;;;;;;;9.30;86.10;;;;;;5036269;28;19963;-83
2022/09/28 04:13:24;;;;;;;;;;;9.30;86.40;;;;;;5016961;28;19921;-83
2022/09/28 04:15:54;;;;;;;;;;;9.30;86.50;;;;;;5041293;28;19912;-83
2022/09/28 04:18:20;;;;;;;;;;;9.30;86.30;;;;;;5039053;28;20283;-82
2022/09/28 04:20:46;;;;;;;;;;;9.30;86.20;;;;;;5023061;28;19913;-82
2022/09/28 04:23:15;;;;;;;;;;;9.30;86.00;;;;;;5039113;28;20434;-82
2022/09/28 04:25:41;;;;;;;;;;;9.40;86.20;;;;;;5031982;28;20038;-82
2022/09/28 04:30:51;;;;;;;;;;;9.30;86.50;;;;;;5042845;28;19955;-83
2022/09/28 04:33:16;;;;;;;;;;;9.30;86.10;;;;;;5055376;28;19909;-82
2022/09/28 04:35:42;;;;;;;;;;;9.40;86.40;;;;;;5026316;28;19912;-83
2022/09/28 04:38:07;;;;;;;;;;;9.40;86.30;;;;;;5057034;28;19913;-83
2022/09/28 04:40:32;;;;;;;;;;;9.40;86.20;;;;;;5041082;28;19924;-83
2022/09/28 04:42:58;;;;;;;;;;;9.40;86.10;;;;;;5037928;28;20389;-83
2022/09/28 04:45:27;;;;;;;;;;;9.40;86.70;;;;;;5024431;28;19922;-82
2022/09/28 04:47:53;;;;;;;;;;;9.50;86.50;;;;;;5052018;28;19932;-83
2022/09/28 04:50:18;;;;;;;;;;;9.40;86.30;;;;;;5025486;28;19952;-83
2022/09/28 04:52:44;;;;;;;;;;;9.40;86.50;;;;;;5061209;28;19904;-81
2022/09/28 04:55:11;;;;;;;;;;;9.40;86.40;;;;;;5039504;28;19975;-83
2022/09/28 04:57:36;;;;;;;;;;;9.40;86.50;;;;;;5055976;28;19917;-83
2022/09/28 05:00:02;;;;;;;;;;;9.30;86.70;;;;;;5053364;28;19983;-82
2022/09/28 05:02:28;;;;;;;;;;;9.30;86.90;;;;;;5040809;28;19913;-83
2022/09/28 05:04:55;;;;;;;;;;;9.50;86.70;;;;;;5044292;28;19944;-83
2022/09/28 05:07:20;;;;;;;;;;;9.30;87.00;;;;;;5046964;28;19920;-80
2022/09/28 05:09:46;;;;;;;;;;;9.40;87.00;;;;;;5013432;28;19913;-82
2022/09/28 05:12:11;;;;;;;;;;;9.50;86.90;;;;;;5029076;28;19921;-81
2022/09/28 05:14:37;;;;;;;;;;;9.50;86.70;;;;;;5045023;28;19913;-81
2022/09/28 05:17:02;;;;;;;;;;;9.50;86.80;;;;;;5022050;28;20323;-82
2022/09/28 05:19:29;;;;;;;;;;;9.50;87.30;;;;;;5031559;28;19917;-82
2022/09/28 05:21:56;;;;;;;;;;;9.50;86.50;;;;;;5049950;28;19921;-82
2022/09/28 05:24:22;;;;;;;;;;;9.60;86.10;;;;;;5049884;28;20003;-82
2022/09/28 05:26:48;;;;;;;;;;;9.50;86.40;;;;;;5043860;28;19913;-82
2022/09/28 05:29:13;;;;;;;;;;;9.50;86.40;;;;;;5028561;28;19939;-83
2022/09/28 05:31:39;;;;;;;;;;;9.50;86.40;;;;;;5039156;28;19970;-80
2022/09/28 05:34:04;;;;;;;;;;;9.50;86.50;;;;;;5031088;28;19925;-81
2022/09/28 05:36:31;;;;;;;;;;;9.50;86.70;;;;;;5036980;28;19917;-82
2022/09/28 05:38:57;;;;;;;;;;;9.50;86.30;;;;;;5024591;28;19950;-80
2022/09/28 05:41:22;;;;;;;;;;;9.60;86.00;;;;;;5012692;28;19913;-84
2022/09/28 05:43:50;;;;;;;;;;;9.50;85.60;;;;;;5021578;28;20366;-87
2022/09/28 05:46:15;;;;;;;;;;;9.40;86.00;;;;;;5037529;28;19913;-80
2022/09/28 05:48:41;;;;;;;;;;;9.40;86.20;;;;;;5037428;28;20011;-84
2022/09/28 05:51:08;;;;;;;;;;;9.40;86.30;;;;;;5016485;28;20371;-82
2022/09/28 05:53:34;;;;;;;;;;;9.50;85.90;;;;;;5029794;28;19921;-81
2022/09/28 05:56:00;;;;;;;;;;;9.50;85.20;;;;;;5023717;28;19918;-81
2022/09/28 05:58:26;;;;;;;;;;;9.50;85.70;;;;;;5005237;28;19920;-82
2022/09/28 06:00:55;;;;;;;;;;;9.40;85.90;;;;;;5018722;28;19915;-83
2022/09/28 06:03:20;;;;;;;;;;;9.50;86.00;;;;;;5028971;28;20264;-82
2022/09/28 06:05:46;;;;;;;;;;;9.40;86.50;;;;;;5045014;28;19916;-82
2022/09/28 06:08:12;;;;;;;;;;;9.40;86.60;;;;;;5040958;28;19923;-81
2022/09/28 06:10:38;;;;;;;;;;;9.40;86.50;;;;;;5022938;28;20351;-82
2022/09/28 06:13:03;;;;;;;;;;;9.40;86.10;;;;;;5034869;28;19916;-83
2022/09/28 06:15:30;;;;;;;;;;;9.50;86.20;;;;;;5057014;28;19955;-81
2022/09/28 06:17:59;;;;;;;;;;;9.50;86.10;;;;;;5032091;28;19913;-82
2022/09/28 06:20:26;;;;;;;;;;;9.60;85.70;;;;;;5038366;28;19910;-82
2022/09/28 06:22:52;;;;;;;;;;;9.60;85.90;;;;;;5067567;28;19913;-82
2022/09/28 06:25:17;;;;;;;;;;;9.60;85.90;;;;;;5042560;28;19962;-84
2022/09/28 06:27:51;;;;;;;;;;;9.60;85.60;;;;;;5041222;28;19913;-84
2022/09/28 06:30:17;;;;;;;;;;;9.60;85.30;;;;;;5018408;28;20400;-84
2022/09/28 06:32:42;;;;;;;;;;;9.60;85.60;;;;;;5034078;28;19909;-83
2022/09/28 06:35:08;;;;;;;;;;;9.60;85.90;;;;;;5033589;28;20256;-83
2022/09/28 06:37:34;;;;;;;;;;;9.60;85.60;;;;;;5015722;28;19944;-83
2022/09/28 06:39:59;;;;;;;;;;;9.60;85.20;;;;;;5026442;28;20382;-84
2022/09/28 06:42:25;;;;;;;;;;;9.70;85.10;;;;;;5024277;28;19980;-83
2022/09/28 06:44:51;;;;;;;;;;;9.70;84.80;;;;;;5019305;28;20298;-84
2022/09/28 06:47:16;;;;;;;;;;;9.80;84.90;;;;;;5041287;28;20299;-82
2022/09/28 06:49:42;;;;;;;;;;;9.80;85.30;;;;;;5027829;28;20330;-84
2022/09/28 06:52:07;;;;;;;;;;;9.90;85.30;;;;;;5025282;28;19920;-83
2022/09/28 06:54:32;;;;;;;;;;;9.90;84.90;;;;;;5049427;28;19916;-83
2022/09/28 06:56:58;;;;;;;;;;;9.90;85.10;;;;;;5030090;28;19917;-82
2022/09/28 06:59:23;;;;;;;;;;;9.90;84.80;;;;;;5036705;28;20298;-82
2022/09/28 07:01:49;;;;;;;;;;;10.00;84.20;;;;;;5041392;28;20000;-83
2022/09/28 07:04:14;;;;;;;;;;;9.90;84.90;;;;;;5030424;28;19963;-81
2022/09/28 07:06:45;;;;;;;;;;;9.90;84.70;;;;;;5009291;28;20375;-83
2022/09/28 07:09:10;;;;;;;;;;;9.80;85.00;;;;;;5043678;28;19971;-82
2022/09/28 07:11:38;;;;;;;;;;;9.80;85.20;;;;;;5034655;28;20406;-83
2022/09/28 07:14:04;;;;;;;;;;;9.90;85.20;;;;;;5031533;28;20050;-83
2022/09/28 07:16:29;;;;;;;;;;;9.80;84.90;;;;;;5043990;28;20042;-83
2022/09/28 07:18:55;;;;;;;;;;;9.90;84.80;;;;;;5017692;28;19913;-82
2022/09/28 07:21:20;;;;;;;;;;;9.70;85.40;;;;;;5046825;28;20007;-83
2022/09/28 07:23:47;;;;;;;;;;;9.80;85.80;;;;;;5038631;28;19912;-83
2022/09/28 07:26:13;;;;;;;;;;;9.90;85.90;;;;;;5023110;28;19913;-83
2022/09/28 07:28:40;;;;;;;;;;;9.90;85.50;;;;;;5029715;28;19938;-84
2022/09/28 07:31:06;;;;;;;;;;;9.80;85.70;;;;;;5024367;28;19921;-83
2022/09/28 07:33:32;;;;;;;;;;;9.80;86.10;;;;;;5018670;28;19923;-82
2022/09/28 07:35:57;;;;;;;;;;;9.80;86.10;;;;;;5047154;28;19913;-82
2022/09/28 07:38:24;;;;;;;;;;;9.80;85.90;;;;;;5062299;28;19921;-83
2022/09/28 07:43:34;;;;;;;;;;;9.90;86.20;;;;;;5045627;28;19928;-84
2022/09/28 07:46:00;;;;;;;;;;;9.90;85.90;;;;;;5033400;28;19913;-81
2022/09/28 07:48:25;;;;;;;;;;;9.90;86.10;;;;;;5012851;28;19972;-82
2022/09/28 07:50:52;;;;;;;;;;;9.80;86.30;;;;;;5043381;28;20012;-83
2022/09/28 07:53:18;;;;;;;;;;;9.80;86.40;;;;;;5036173;28;19917;-85
2022/09/28 07:55:49;;;;;;;;;;;10.00;85.90;;;;;;5035355;28;19913;-85
2022/09/28 07:58:14;;;;;;;;;;;9.90;85.80;;;;;;5032082;28;19928;-82
2022/09/28 08:00:40;;;;;;;;;;;9.80;86.30;;;;;;5034125;28;19913;-82
2022/09/28 08:03:05;;;;;;;;;;;9.80;86.90;;;;;;5023997;28;19913;-82
2022/09/28 08:05:30;;;;;;;;;;;9.90;86.90;;;;;;5045779;28;19908;-84
2022/09/28 08:07:57;;;;;;;;;;;9.80;87.00;;;;;;5025490;28;19949;-83
2022/09/28 08:10:23;;;;;;;;;;;9.80;87.30;;;;;;5015524;28;20318;-83
2022/09/28 08:12:53;;;;;;;;;;;10.00;87.00;;;;;;5040676;28;19921;-82
2022/09/28 08:15:20;;;;;;;;;;;9.90;86.70;;;;;;5037506;28;19913;-82
2022/09/28 08:17:46;;;;;;;;;;;10.00;86.80;;;;;;5034567;28;20444;-82
2022/09/28 08:23:01;;;;;;;;;;;10.10;86.90;;;;;;5031015;28;19921;-85
2022/09/28 08:25:26;;;;;;;;;;;10.10;86.90;;;;;;5012581;28;19936;-84
2022/09/28 08:27:53;;;;;;;;;;;10.10;86.40;;;;;;5013856;28;19913;-83
2022/09/28 08:30:18;;;;;;;;;;;10.10;86.70;;;;;;5034042;28;19916;-82
2022/09/28 08:32:50;;;;;;;;;;;10.10;86.40;;;;;;5018960;28;19917;-82
2022/09/28 08:35:16;;;;;;;;;;;10.10;86.50;;;;;;5028296;28;20442;-82
2022/09/28 08:37:41;;;;;;;;;;;10.20;86.30;;;;;;5016422;28;20017;-82
2022/09/28 08:40:12;;;;;;;;;;;10.30;86.30;;;;;;5014671;28;19972;-83
2022/09/28 08:42:40;;;;;;;;;;;10.30;86.30;;;;;;5006548;28;19913;-83
2022/09/28 08:45:07;;;;;;;;;;;10.30;86.10;;;;;;5026747;28;19913;-82
2022/09/28 08:50:19;;;;;;;;;;;10.40;86.50;;;;;;5027300;28;19936;-82
2022/09/28 08:52:46;;;;;;;;;;;10.50;86.00;;;;;;5015714;28;19914;-82
2022/09/28 08:55:15;;;;;;;;;;;10.70;85.60;;;;;;5028093;28;19913;-81
2022/09/28 08:57:53;;;;;;;;;;;10.70;84.90;;;;;;5003276;28;20043;-86
2022/09/28 09:00:20;;;;;;;;;;;10.70;84.90;;;;;;5023091;28;19924;-81
2022/09/28 09:02:46;;;;;;;;;;;10.50;84.80;;;;;;5039640;28;19909;-80
2022/09/28 09:05:14;;;;;;;;;;;10.60;85.00;;;;;;5055421;28;19913;-80
2022/09/28 09:07:58;;;;;;;;;;;10.60;84.70;;;;;;5019345;28;19948;-80
2022/09/28 09:10:35;;;;;;;;;;;10.70;84.60;;;;;;5015096;28;19987;-80
2022/09/28 09:13:07;;;;;;;;;;;10.80;84.30;;;;;;5027809;28;19909;-79
2022/09/28 09:15:37;;;;;;;;;;;10.90;84.50;;;;;;5034971;28;19913;-80
2022/09/28 09:18:03;;;;;;;;;;;11.00;84.00;;;;;;5024043;28;19939;-79
2022/09/28 09:20:36;;;;;;;;;;;11.00;84.00;;;;;;5033108;28;19999;-80
2022/09/28 09:23:11;;;;;;;;;;;10.90;84.50;;;;;;5032653;28;19999;-80
2022/09/28 09:25:37;;;;;;;;;;;10.90;84.10;;;;;;5031881;28;19913;-80
2022/09/28 09:28:22;;;;;;;;;;;10.80;83.70;;;;;;5027930;28;19920;-80
2022/09/28 09:30:54;;;;;;;;;;;10.90;84.40;;;;;;5034311;28;19963;-80
2022/09/28 09:33:22;;;;;;;;;;;11.20;84.10;;;;;;5030554;28;19913;-80
2022/09/28 09:35:51;;;;;;;;;;;11.30;83.10;;;;;;5013072;28;20278;-80
2022/09/28 09:38:28;;;;;;;;;;;11.40;82.90;;;;;;5023664;28;19913;-79
2022/09/28 09:41:13;;;;;;;;;;;11.40;82.90;;;;;;5028486;28;19920;-79
2022/09/28 09:43:59;;;;;;;;;;;11.40;82.70;;;;;;5024853;28;19940;-80
2022/09/28 09:46:27;;;;;;;;;;;11.30;83.00;;;;;;5016132;28;19923;-80
2022/09/28 09:49:02;;;;;;;;;;;11.10;82.20;;;;;;5039392;28;19975;-80
2022/09/28 09:51:28;;;;;;;;;;;11.00;81.90;;;;;;5033703;28;19967;-79
2022/09/28 09:53:58;;;;;;;;;;;11.10;81.70;;;;;;5022644;28;20361;-80
2022/09/28 09:56:24;;;;;;;;;;;11.10;81.90;;;;;;5019767;28;19913;-80
2022/09/28 09:58:52;;;;;;;;;;;11.10;81.50;;;;;;5038648;28;19908;-80
2022/09/28 10:01:20;;;;;;;;;;;11.10;81.60;;;;;;5056613;28;19909;-80
2022/09/28 10:03:47;;;;;;;;;;;11.10;80.60;;;;;;5056648;28;19988;-80
2022/09/28 10:06:23;;;;;;;;;;;11.20;81.30;;;;;;5037319;28;19913;-80
2022/09/28 10:08:54;;;;;;;;;;;11.30;80.20;;;;;;5021790;28;19909;-80
2022/09/28 10:11:24;;;;;;;;;;;11.20;79.90;;;;;;5030084;28;20007;-80
2022/09/28 10:13:50;;;;;;;;;;;11.30;79.90;;;;;;5042353;28;19948;-80
2022/09/28 10:16:16;;;;;;;;;;;11.40;79.40;;;;;;5047055;28;19924;-80
2022/09/28 10:18:42;;;;;;;;;;;11.70;78.90;;;;;;5038113;28;19918;-80
2022/09/28 10:21:14;;;;;;;;;;;11.90;78.60;;;;;;5020960;28;19909;-80
2022/09/28 10:23:40;;;;;;;;;;;12.10;78.60;;;;;;5056422;28;19943;-80
2022/09/28 10:26:09;;;;;;;;;;;12.20;78.20;;;;;;5044951;28;20408;-79
2022/09/28 10:28:38;;;;;;;;;;;12.20;76.80;;;;;;5027545;28;19920;-79
2022/09/28 10:31:23;;;;;;;;;;;12.30;75.80;;;;;;5047167;28;19917;-79
2022/09/28 10:33:51;;;;;;;;;;;12.10;75.80;;;;;;5019063;28;19999;-80
2022/09/28 10:36:17;;;;;;;;;;;12.00;75.90;;;;;;5053222;28;19909;-79
2022/09/28 10:38:46;;;;;;;;;;;11.80;76.30;;;;;;5037032;28;19921;-80
2022/09/28 10:41:12;;;;;;;;;;;11.80;76.80;;;;;;5040631;28;19925;-79
2022/09/28 10:43:48;;;;;;;;;;;11.80;75.70;;;;;;5045849;28;19955;-81
2022/09/28 10:46:19;;;;;;;;;;;11.80;75.50;;;;;;5036220;28;19914;-79
2022/09/28 10:48:47;;;;;;;;;;;11.90;75.90;;;;;;5051519;28;19917;-78
2022/09/28 10:51:12;;;;;;;;;;;11.90;75.20;;;;;;5026055;28;19976;-79
2022/09/28 10:53:38;;;;;;;;;;;12.00;75.50;;;;;;5063192;28;20341;-79
2022/09/28 10:56:20;;;;;;;;;;;12.10;74.70;;;;;;5061461;28;19913;-79
2022/09/28 10:58:46;;;;;;;;;;;12.10;75.00;;;;;;5053105;28;19921;-80
2022/09/28 11:01:19;;;;;;;;;;;12.20;74.40;;;;;;5048750;28;20083;-79
2022/09/28 11:03:55;;;;;;;;;;;12.20;75.00;;;;;;5029687;28;19959;-79
2022/09/28 11:06:31;;;;;;;;;;;12.30;74.90;;;;;;5036247;28;19921;-86
2022/09/28 11:08:59;;;;;;;;;;;12.40;72.90;;;;;;5037120;28;19913;-85
2022/09/28 11:11:44;;;;;;;;;;;12.60;72.40;;;;;;5029918;28;19917;-87
2022/09/28 11:14:28;;;;;;;;;;;12.70;72.70;;;;;;5035473;28;19955;-86
2022/09/28 11:17:15;;;;;;;;;;;12.90;71.20;;;;;;5027882;28;19944;-84
2022/09/28 11:19:42;;;;;;;;;;;12.90;71.70;;;;;;5040010;28;19928;-84
2022/09/28 11:22:27;;;;;;;;;;;12.80;71.50;;;;;;5031343;28;19917;-82
2022/09/28 11:25:11;;;;;;;;;;;12.90;72.10;;;;;;5030066;28;19914;-80
2022/09/28 11:27:37;;;;;;;;;;;12.90;71.80;;;;;;5031097;28;19919;-81
2022/09/28 11:30:03;;;;;;;;;;;13.00;71.50;;;;;;5026771;28;19913;-81
2022/09/28 11:32:30;;;;;;;;;;;12.90;72.50;;;;;;5030841;28;20298;-83
2022/09/28 11:34:57;;;;;;;;;;;12.80;73.30;;;;;;5011537;28;19913;-83
2022/09/28 11:37:30;;;;;;;;;;;12.90;73.30;;;;;;5036682;28;19925;-82
2022/09/28 11:39:55;;;;;;;;;;;13.00;71.60;;;;;;5031719;28;20425;-81
2022/09/28 11:42:36;;;;;;;;;;;12.90;72.40;;;;;;5031633;28;19993;-85
2022/09/28 11:45:23;;;;;;;;;;;12.80;72.50;;;;;;5049913;28;19909;-84
2022/09/28 11:48:03;;;;;;;;;;;12.50;72.60;;;;;;5007170;28;19921;-85
2022/09/28 11:50:28;;;;;;;;;;;12.40;73.40;;;;;;5012999;28;20289;-85
2022/09/28 11:52:58;;;;;;;;;;;12.50;74.00;;;;;;5011949;28;19918;-83
2022/09/28 11:55:27;;;;;;;;;;;12.40;73.90;;;;;;5027675;28;20000;-84
2022/09/28 11:57:58;;;;;;;;;;;12.30;74.50;;;;;;5014224;28;19931;-83
2022/09/28 12:00:24;;;;;;;;;;;12.20;75.40;;;;;;5017954;28;19952;-84
2022/09/28 12:03:08;;;;;;;;;;;12.20;76.20;;;;;;5016798;28;19913;-85
2022/09/28 12:05:56;;;;;;;;;;;12.40;75.60;;;;;;5029952;28;19913;-85
2022/09/28 12:08:29;;;;;;;;;;;12.60;74.90;;;;;;5008406;23;19937;-85
2022/09/28 12:10:58;;;;;;;;;;;12.90;73.60;;;;;;5035557;28;19925;-82
2022/09/28 12:13:27;;;;;;;;;;;13.00;73.20;;;;;;5032671;28;19959;-83
2022/09/28 12:15:56;;;;;;;;;;;13.10;73.00;;;;;;5012875;28;19950;-83
2022/09/28 12:18:27;;;;;;;;;;;13.10;72.80;;;;;;5010585;28;20398;-80
2022/09/28 12:21:02;;;;;;;;;;;13.30;70.00;;;;;;5028821;28;19913;-81
2022/09/28 12:23:30;;;;;;;;;;;13.50;69.40;;;;;;5004613;28;19980;-80
2022/09/28 12:25:58;;;;;;;;;;;13.40;70.30;;;;;;5023997;28;19913;-80
2022/09/28 12:28:23;;;;;;;;;;;13.30;71.40;;;;;;5032708;28;19913;-80
2022/09/28 12:30:49;;;;;;;;;;;13.20;71.10;;;;;;5015409;28;19960;-80
2022/09/28 12:33:15;;;;;;;;;;;13.20;70.90;;;;;;5022396;28;19917;-80
2022/09/28 12:35:59;;;;;;;;;;;13.10;73.00;;;;;;4998266;28;19922;-81
2022/09/28 12:38:36;;;;;;;;;;;13.20;70.00;;;;;;5005760;28;21180;-81
2022/09/28 12:41:15;;;;;;;;;;;13.20;72.50;;;;;;5023085;28;20495;-83
2022/09/28 12:43:56;;;;;;;;;;;13.20;72.40;;;;;;5002259;28;20413;-81
2022/09/28 12:46:39;;;;;;;;;;;13.50;71.40;;;;;;5016173;28;19913;-81
2022/09/28 12:49:11;;;;;;;;;;;13.60;71.00;;;;;;5012349;28;19913;-81
2022/09/28 12:51:46;;;;;;;;;;;13.40;71.40;;;;;;5024842;28;20008;-79
2022/09/28 12:54:20;;;;;;;;;;;13.30;73.20;;;;;;5004481;28;19914;-80
2022/09/28 12:57:04;;;;;;;;;;;13.20;73.50;;;;;;5024494;28;19933;-81
2022/09/28 12:59:49;;;;;;;;;;;13.10;74.60;;;;;;5016238;28;19914;-81
2022/09/28 13:02:53;;;;;;;;;;;12.80;75.20;;;;;;5009415;28;19923;-77
2022/09/28 13:05:57;;;;;;;;;;;12.70;76.40;;;;;;4951818;28;19937;-80
2022/09/28 13:08:25;;;;;;;;;;;12.50;77.50;;;;;;4921873;29;19953;-79
2022/09/28 13:11:09;;;;;;;;;;;12.50;78.60;;;;;;4909637;29;19918;-79
2022/09/28 13:13:35;;;;;;;;;;;12.50;78.60;;;;;;4969827;28;19994;-79
2022/09/28 13:16:05;;;;;;;;;;;12.50;79.50;;;;;;5015819;28;19914;-79
2022/09/28 13:18:44;;;;;;;;;;;12.50;79.60;;;;;;5010537;28;19953;-79
2022/09/28 13:21:13;;;;;;;;;;;12.50;80.60;;;;;;5029435;28;20400;-79
2022/09/28 13:23:41;;;;;;;;;;;12.50;80.50;;;;;;5028920;28;19917;-79
2022/09/28 13:26:25;;;;;;;;;;;12.50;80.80;;;;;;5010495;28;19914;-79
2022/09/28 13:29:03;;;;;;;;;;;12.70;80.30;;;;;;4999208;28;20538;-79
2022/09/28 13:31:32;;;;;;;;;;;12.70;80.30;;;;;;5012765;28;20069;-80
2022/09/28 13:34:01;;;;;;;;;;;13.00;80.40;;;;;;5017641;28;20000;-78
2022/09/28 13:36:27;;;;;;;;;;;13.20;79.30;;;;;;5013572;28;20053;-79
2022/09/28 13:38:54;;;;;;;;;;;13.30;78.40;;;;;;5008534;28;19992;-78
2022/09/28 13:41:28;;;;;;;;;;;13.30;78.80;;;;;;4994351;28;19914;-80
2022/09/28 13:44:09;;;;;;;;;;;13.30;79.40;;;;;;4997438;28;20345;-80
2022/09/28 13:46:37;;;;;;;;;;;13.40;78.50;;;;;;5000422;28;20378;-79
2022/09/28 13:49:10;;;;;;;;;;;13.30;78.20;;;;;;5023037;28;19921;-78
2022/09/28 13:51:40;;;;;;;;;;;13.40;78.40;;;;;;5023902;28;19921;-79
2022/09/28 13:54:27;;;;;;;;;;;13.50;78.10;;;;;;5008181;28;19914;-78
2022/09/28 13:57:12;;;;;;;;;;;13.60;77.70;;;;;;4999502;28;19917;-79
2022/09/28 13:59:50;;;;;;;;;;;13.80;77.30;;;;;;5023428;28;19917;-79
2022/09/28 14:02:23;;;;;;;;;;;13.90;76.00;;;;;;5019966;28;20301;-79
2022/09/28 14:04:48;;;;;;;;;;;13.90;75.20;;;;;;5024364;28;19916;-80
2022/09/28 14:07:15;;;;;;;;;;;13.90;74.60;;;;;;5001928;28;20429;-79
2022/09/28 14:09:40;;;;;;;;;;;13.70;74.40;;;;;;5010405;28;20305;-79
2022/09/28 14:12:25;;;;;;;;;;;13.70;74.60;;;;;;5035385;28;19916;-79
2022/09/28 14:14:51;;;;;;;;;;;13.70;74.40;;;;;;5025522;28;19913;-79
2022/09/28 14:17:20;;;;;;;;;;;13.70;74.80;;;;;;5015986;28;19984;-80
2022/09/28 14:19:49;;;;;;;;;;;13.80;73.10;;;;;;5026097;28;20551;-80
2022/09/28 14:22:32;;;;;;;;;;;13.70;74.10;;;;;;5034265;28;19917;-79
2022/09/28 14:25:02;;;;;;;;;;;13.80;74.00;;;;;;5019647;28;20509;-80
2022/09/28 14:27:27;;;;;;;;;;;13.80;75.90;;;;;;5036255;28;19917;-80
2022/09/28 14:30:05;;;;;;;;;;;13.80;76.20;;;;;;5035758;28;19910;-80
2022/09/28 14:32:34;;;;;;;;;;;13.80;76.20;;;;;;5019104;28;20276;-79
2022/09/28 14:35:03;;;;;;;;;;;13.80;75.40;;;;;;5032779;28;19921;-80
2022/09/28 14:43:25;;;;;;;;;;;13.60;77.90;;;;;;5043398;28;19927;-78
2022/09/28 14:46:13;;;;;;;;;;;13.50;78.20;;;;;;5026090;28;19913;-79
2022/09/28 14:48:43;;;;;;;;;;;13.40;77.90;;;;;;5050797;28;19958;-79
2022/09/28 14:51:25;;;;;;;;;;;13.30;78.50;;;;;;5031125;28;19924;-78
2022/09/28 14:53:55;;;;;;;;;;;13.20;78.80;;;;;;5054706;28;19916;-79